createdAt,value
2023-03-13T00:02:34.842Z,99.9
2023-03-13T00:07:34.808Z,99.9
2023-03-13T00:12:34.852Z,99.9
2023-03-13T00:17:34.819Z,99.9
2023-03-13T00:22:34.805Z,99.9
2023-03-13T00:27:34.825Z,99.9
2023-03-13T00:32:34.881Z,99.9
2023-03-13T00:37:34.802Z,99.9
2023-03-13T00:42:34.806Z,99.9
2023-03-13T00:47:34.800Z,99.9
2023-03-13T00:52:34.852Z,99.9
2023-03-13T00:57:34.823Z,99.9
2023-03-13T01:02:34.977Z,99.9
2023-03-13T01:07:34.800Z,99.9
2023-03-13T01:12:34.836Z,99.9
2023-03-13T01:17:34.807Z,99.9
2023-03-13T01:22:34.871Z,99.9
2023-03-13T01:27:34.823Z,99.9
2023-03-13T01:32:34.962Z,99.9
2023-03-13T01:37:34.827Z,99.9
2023-03-13T01:42:34.806Z,99.9
2023-03-13T01:47:34.811Z,99.9
2023-03-13T01:52:34.836Z,99.9
2023-03-13T01:57:34.812Z,99.9
2023-03-13T02:02:34.826Z,99.9
2023-03-13T02:07:34.792Z,99.9
2023-03-13T02:12:34.822Z,99.9
2023-03-13T02:17:34.796Z,99.9
2023-03-13T02:22:34.797Z,99.9
2023-03-13T02:27:34.788Z,99.9
2023-03-13T02:32:34.874Z,99.9
2023-03-13T02:37:34.809Z,99.9
2023-03-13T02:42:34.766Z,99.9
2023-03-13T02:47:34.773Z,99.9
2023-03-13T02:52:34.808Z,99.9
2023-03-13T02:57:34.847Z,99.9
2023-03-13T03:02:34.780Z,99.9
2023-03-13T03:07:34.780Z,99.9
2023-03-13T03:12:34.812Z,99.9
2023-03-13T03:17:34.924Z,99.9
2023-03-13T03:22:34.764Z,99.9
2023-03-13T03:27:34.762Z,99.9
2023-03-13T03:32:34.844Z,99.9
2023-03-13T03:37:34.774Z,99.9
2023-03-13T03:42:34.792Z,99.9
2023-03-13T03:47:34.776Z,99.9
2023-03-13T03:52:38.773Z,99.9
2023-03-13T03:57:34.772Z,99.9
2023-03-13T04:02:34.836Z,99.9
2023-03-13T04:07:34.783Z,99.9
2023-03-13T04:12:34.798Z,99.9
2023-03-13T04:17:34.763Z,99.9
2023-03-13T04:22:34.757Z,99.9
2023-03-13T04:27:34.764Z,99.9
2023-03-13T04:32:34.799Z,99.9
2023-03-13T04:37:34.763Z,99.9
2023-03-13T04:42:34.773Z,99.9
2023-03-13T04:47:34.764Z,99.9
2023-03-13T04:52:34.891Z,99.9
2023-03-13T04:57:34.772Z,99.9
2023-03-13T05:02:34.767Z,99.9
2023-03-13T05:07:34.753Z,99.9
2023-03-13T05:12:34.818Z,99.9
2023-03-13T05:17:34.769Z,99.9
2023-03-13T05:22:34.767Z,99.9
2023-03-13T05:27:34.749Z,99.9
2023-03-13T05:32:34.870Z,99.9
2023-03-13T05:37:41.246Z,99.9
2023-03-13T05:42:34.782Z,99.9
2023-03-13T05:47:34.790Z,99.9
2023-03-13T05:52:34.800Z,99.9
2023-03-13T05:57:34.781Z,99.9
2023-03-13T06:02:34.790Z,99.9
2023-03-13T06:07:34.790Z,99.9
2023-03-13T06:12:34.815Z,99.9
2023-03-13T06:17:38.920Z,99.9
2023-03-13T06:22:34.774Z,99.9
2023-03-13T06:27:34.784Z,99.9
2023-03-13T06:32:37.064Z,99.9
2023-03-13T06:37:36.371Z,99.9
2023-03-13T06:42:34.787Z,99.9
2023-03-13T06:47:34.776Z,99.9
2023-03-13T06:52:43.230Z,99.9
2023-03-13T06:57:34.757Z,99.9
2023-03-13T07:02:34.761Z,99.9
2023-03-13T07:07:34.761Z,99.9
2023-03-13T07:12:35.001Z,99.9
2023-03-13T07:17:35.066Z,99.9
2023-03-13T07:22:34.769Z,99.9
2023-03-13T07:27:34.801Z,99.9
2023-03-13T07:32:34.813Z,99.9
2023-03-13T07:37:34.761Z,99.9
2023-03-13T07:42:34.766Z,99.9
2023-03-13T07:47:34.784Z,99.9
2023-03-13T07:52:34.821Z,99.9
2023-03-13T07:57:34.774Z,99.9
2023-03-13T08:02:34.848Z,99.9
2023-03-13T08:07:34.755Z,99.9
2023-03-13T08:12:34.834Z,99.9
2023-03-13T08:17:34.808Z,99.9
2023-03-13T08:22:34.852Z,99.9
2023-03-13T08:27:34.836Z,99.9
2023-03-13T08:32:34.957Z,99.9
2023-03-13T08:37:34.753Z,99.9
2023-03-13T08:42:34.765Z,99.9
2023-03-13T08:47:34.800Z,99.9
2023-03-13T08:52:34.799Z,99.9
2023-03-13T08:57:34.770Z,99.9
2023-03-13T09:02:34.818Z,99.9
2023-03-13T09:07:34.788Z,99.9
2023-03-13T09:12:34.919Z,99.9
2023-03-13T09:17:34.764Z,99.9
2023-03-13T09:22:34.762Z,99.9
2023-03-13T09:27:34.754Z,99.9
2023-03-13T09:32:34.897Z,99.9
2023-03-13T09:37:34.767Z,99.9
2023-03-13T09:42:34.767Z,99.9
2023-03-13T09:47:34.789Z,99.9
2023-03-13T09:52:34.945Z,99.9
2023-03-13T09:57:34.756Z,99.9
2023-03-13T10:02:34.819Z,99.9
2023-03-13T10:07:34.736Z,99.9
2023-03-13T10:12:34.754Z,99.9
2023-03-13T10:17:38.795Z,99.9
2023-03-13T10:22:34.754Z,99.9
2023-03-13T10:27:35.037Z,99.9
2023-03-13T10:32:34.783Z,99.9
2023-03-13T10:37:34.724Z,99.9
2023-03-13T10:42:38.931Z,99.9
2023-03-13T10:47:34.724Z,99.9
2023-03-13T10:52:34.753Z,99.9
2023-03-13T10:57:34.774Z,99.9
2023-03-13T11:02:34.846Z,99.9
2023-03-13T11:07:34.786Z,99.9
2023-03-13T11:12:34.945Z,99.9
2023-03-13T11:17:34.792Z,99.9
2023-03-13T11:22:35.063Z,99.9
2023-03-13T11:27:34.811Z,99.9
2023-03-13T11:32:34.851Z,99.9
2023-03-13T11:37:34.811Z,99.9
2023-03-13T11:42:34.774Z,99.9
2023-03-13T11:47:34.776Z,99.9
2023-03-13T11:52:34.825Z,99.9
2023-03-13T11:57:39.757Z,99.9
2023-03-13T12:02:34.902Z,99.9
2023-03-13T12:07:34.767Z,99.9
2023-03-13T12:12:34.810Z,99.9
2023-03-13T12:17:39.534Z,99.9
2023-03-13T12:22:34.759Z,99.9
2023-03-13T12:27:35.080Z,99.9
2023-03-13T12:32:34.904Z,99.9
2023-03-13T12:37:34.789Z,99.9
2023-03-13T12:42:34.791Z,99.9
2023-03-13T12:47:34.776Z,99.9
2023-03-13T12:52:34.996Z,99.9
2023-03-13T12:57:34.843Z,99.9
2023-03-13T13:02:34.805Z,99.9
2023-03-13T13:07:34.793Z,99.9
2023-03-13T13:12:34.809Z,99.9
2023-03-13T13:17:34.776Z,99.9
2023-03-13T13:22:34.877Z,99.9
2023-03-13T13:27:34.836Z,99.9
2023-03-13T13:32:34.869Z,99.9
2023-03-13T13:37:34.807Z,99.9
2023-03-13T13:42:34.928Z,99.9
2023-03-13T13:47:35.027Z,99.9
2023-03-13T13:52:34.921Z,99.9
2023-03-13T13:57:34.899Z,99.9
2023-03-13T14:02:34.966Z,99.9
2023-03-13T14:07:34.943Z,99.9
2023-03-13T14:12:34.981Z,99.9
2023-03-13T14:17:34.991Z,99.9
2023-03-13T14:22:35.121Z,99.9
2023-03-13T14:27:35.171Z,99.9
2023-03-13T14:32:35.292Z,99.9
2023-03-13T14:37:35.235Z,99.9
2023-03-13T14:42:35.286Z,99.9
2023-03-13T14:47:35.323Z,99.9
2023-03-13T14:52:35.517Z,99.9
2023-03-13T14:57:35.398Z,99.9
2023-03-13T15:02:35.526Z,99.9
2023-03-13T15:07:35.395Z,99.9
2023-03-13T15:12:35.599Z,99.9
2023-03-13T15:17:35.517Z,99
2023-03-13T15:22:35.576Z,99.1
2023-03-13T15:27:35.626Z,97.3
2023-03-13T15:32:35.631Z,97
2023-03-13T15:37:35.557Z,95.2
2023-03-13T15:42:35.567Z,95.5
2023-03-13T15:47:35.565Z,94.9
2023-03-13T15:52:35.608Z,94.7
2023-03-13T15:57:35.651Z,94.9
2023-03-13T16:02:35.629Z,94.9
2023-03-13T16:07:35.632Z,94.9
2023-03-13T16:12:35.634Z,95.3
2023-03-13T16:17:35.601Z,95.5
2023-03-13T16:22:35.622Z,96.1
2023-03-13T16:27:35.779Z,96.4
2023-03-13T16:32:36.013Z,96.4
2023-03-13T16:37:35.913Z,96.6
2023-03-13T16:42:35.914Z,97
2023-03-13T16:47:37.511Z,97.1
2023-03-13T16:52:35.988Z,97.3
2023-03-13T16:57:36.035Z,97.5
2023-03-13T17:02:36.136Z,97.7
2023-03-13T17:07:35.997Z,98
2023-03-13T17:12:36.058Z,98.2
2023-03-13T17:17:40.012Z,98.4
2023-03-13T17:22:36.055Z,98.4
2023-03-13T17:27:36.033Z,98.6
2023-03-13T17:32:36.116Z,98.6
2023-03-13T17:37:36.058Z,98.6
2023-03-13T17:42:36.047Z,99
2023-03-13T17:47:36.092Z,99
2023-03-13T17:52:36.330Z,99.1
2023-03-13T17:57:38.879Z,99.1
2023-03-13T18:02:36.143Z,99.2
2023-03-13T18:07:36.250Z,99.5
2023-03-13T18:12:36.203Z,99.7
2023-03-13T18:17:36.184Z,99.9
2023-03-13T18:22:36.236Z,99.9
2023-03-13T18:27:36.243Z,99.9
2023-03-13T18:32:36.308Z,99.9
2023-03-13T18:37:36.254Z,99.9
2023-03-13T18:42:36.263Z,99.9
2023-03-13T18:47:36.496Z,99.9
2023-03-13T18:52:36.385Z,99.9
2023-03-13T18:57:36.384Z,99.9
2023-03-13T19:02:36.491Z,99.9
2023-03-13T19:07:36.492Z,99.9
2023-03-13T19:12:36.519Z,99.9
2023-03-13T19:17:36.512Z,99.9
2023-03-13T19:22:36.517Z,99.9
2023-03-13T19:27:36.538Z,99.9
2023-03-13T19:32:36.637Z,99.9
2023-03-13T19:37:36.613Z,99.9
2023-03-13T19:42:36.608Z,99.9
2023-03-13T19:47:36.629Z,99.9
2023-03-13T19:52:36.677Z,99.9
2023-03-13T19:57:36.730Z,99.9
2023-03-13T20:02:36.733Z,99.9
2023-03-13T20:07:36.689Z,99.9
2023-03-13T20:12:36.677Z,99.9
2023-03-13T20:17:36.677Z,99.9
2023-03-13T20:22:36.776Z,99.9
2023-03-13T20:27:36.868Z,99.9
2023-03-13T20:32:39.428Z,99.9
2023-03-13T20:37:36.872Z,99.9
2023-03-13T20:42:36.894Z,99.9
2023-03-13T20:47:36.930Z,99.9
2023-03-13T20:52:36.982Z,99.9
2023-03-13T20:57:37.090Z,99.9
2023-03-13T21:02:37.080Z,99.9
2023-03-13T21:07:37.168Z,99.9
2023-03-13T21:12:37.275Z,99.9
2023-03-13T21:17:37.319Z,99.9
2023-03-13T21:22:37.311Z,99.9
2023-03-13T21:27:37.135Z,99.9
2023-03-13T21:32:37.103Z,99.9
2023-03-13T21:37:37.106Z,99.9
2023-03-13T21:42:37.097Z,99.9
2023-03-13T21:47:37.289Z,99.9
2023-03-13T21:52:38.402Z,99.9
2023-03-13T21:57:37.079Z,99.9
2023-03-13T22:02:37.074Z,99.9
2023-03-13T22:07:37.203Z,99.9
2023-03-13T22:12:37.091Z,99.9
2023-03-13T22:17:37.103Z,99.9
2023-03-13T22:22:37.117Z,99.9
2023-03-13T22:27:37.097Z,99.9
2023-03-13T22:32:37.136Z,99.9
2023-03-13T22:37:37.073Z,99.9
2023-03-13T22:42:37.076Z,99.9
2023-03-13T22:47:37.088Z,99.9
2023-03-13T22:52:37.075Z,99.9
2023-03-13T22:57:37.067Z,99.9
2023-03-13T23:02:37.104Z,99.9
2023-03-13T23:07:37.093Z,99.9
2023-03-13T23:12:37.072Z,99.9
2023-03-13T23:17:37.062Z,99.9
2023-03-13T23:22:37.076Z,99.9
2023-03-13T23:27:37.093Z,99.9
2023-03-13T23:32:37.131Z,99.9
2023-03-13T23:37:37.069Z,99.9
2023-03-13T23:42:37.069Z,99.9
2023-03-13T23:47:37.088Z,99.9
2023-03-13T23:52:37.053Z,99.9
2023-03-13T23:57:37.057Z,99.9
